Time;durP1;ratioP1;P1;durP2;ratioP2;P2;SDS_P1;SDS_P2;PMS_P1;PMS_P2;Temp;Humidity;BMP_temperature;BMP_pressure;BME280_temperature;BME280_humidity;BME280_pressure;Samples;Min_cycle;Max_cycle;Signal;HPM_P1;HPM_P2
2022/06/19 00:00:10;;;;;;;9.73;4.30;;;18.20;97.10;;;;;;5075568;28;20033;-72
2022/06/19 00:02:37;;;;;;;8.00;4.00;;;18.10;97.30;;;;;;5075325;28;20380;-72
2022/06/19 00:05:03;;;;;;;8.48;3.40;;;18.10;97.30;;;;;;5075179;28;20103;-72
2022/06/19 00:07:29;;;;;;;6.55;3.40;;;18.00;97.40;;;;;;5073680;28;20020;-72
2022/06/19 00:09:55;;;;;;;10.50;3.70;;;18.00;97.70;;;;;;5075159;28;20028;-72
2022/06/19 00:12:21;;;;;;;11.25;3.78;;;18.00;97.80;;;;;;5075123;28;20031;-72
2022/06/19 00:14:47;;;;;;;7.85;3.80;;;18.00;97.70;;;;;;5075077;28;20107;-72
2022/06/19 00:17:14;;;;;;;11.25;3.97;;;17.90;97.80;;;;;;5075114;28;20107;-72
2022/06/19 00:19:39;;;;;;;8.80;4.05;;;17.80;98.00;;;;;;5073720;28;20031;-72
2022/06/19 00:22:05;;;;;;;11.15;3.88;;;17.70;98.10;;;;;;5074878;28;20092;-72
2022/06/19 00:24:31;;;;;;;8.88;3.72;;;17.70;98.30;;;;;;5075208;28;20403;-72
2022/06/19 00:26:58;;;;;;;11.63;3.80;;;17.60;98.40;;;;;;5075137;28;20032;-72
2022/06/19 00:29:24;;;;;;;7.65;3.92;;;17.60;98.60;;;;;;5075006;28;20028;-72
2022/06/19 00:31:49;;;;;;;9.60;4.15;;;17.60;98.60;;;;;;5074914;28;20016;-72
2022/06/19 00:34:15;;;;;;;9.10;4.22;;;17.50;98.70;;;;;;5075221;28;20029;-72
2022/06/19 00:36:41;;;;;;;8.40;3.90;;;17.40;99.10;;;;;;5074932;28;20021;-72
2022/06/19 00:39:06;;;;;;;8.63;4.13;;;17.30;99.60;;;;;;5074907;28;20439;-72
2022/06/19 00:41:34;;;;;;;6.75;3.53;;;17.00;99.90;;;;;;5074666;28;20058;-72
2022/06/19 00:44:06;;;;;;;11.80;3.58;;;16.80;99.90;;;;;;5074709;28;20491;-72
2022/06/19 00:46:43;;;;;;;7.88;3.60;;;16.70;99.90;;;;;;5074700;28;20095;-72
2022/06/19 00:49:14;;;;;;;10.30;3.65;;;16.70;99.90;;;;;;5072895;28;20031;-72
2022/06/19 00:51:40;;;;;;;9.70;4.00;;;16.60;99.90;;;;;;5073841;28;20054;-73
2022/06/19 00:54:08;;;;;;;10.43;3.92;;;16.60;99.90;;;;;;5074556;28;20043;-73
2022/06/19 00:56:34;;;;;;;9.88;4.65;;;16.50;99.90;;;;;;5074251;28;20078;-73
2022/06/19 00:59:01;;;;;;;9.85;3.95;;;16.60;99.90;;;;;;5074151;28;20024;-73
2022/06/19 01:01:28;;;;;;;8.27;3.78;;;16.60;99.90;;;;;;5074394;28;20502;-73
2022/06/19 01:04:11;;;;;;;10.15;4.38;;;16.50;99.90;;;;;;5056076;28;20082;-73
2022/06/19 01:06:37;;;;;;;12.27;3.60;;;16.60;99.90;;;;;;5054149;28;20362;-73
2022/06/19 01:09:04;;;;;;;7.80;3.40;;;16.50;99.90;;;;;;5054663;28;20047;-73
2022/06/19 01:11:34;;;;;;;6.30;3.38;;;16.60;99.90;;;;;;5053950;28;20025;-73
2022/06/19 01:14:02;;;;;;;13.37;4.53;;;16.60;99.90;;;;;;5054546;28;20017;-73
2022/06/19 01:16:28;;;;;;;8.40;3.92;;;16.60;99.90;;;;;;5054188;28;20099;-73
2022/06/19 01:18:54;;;;;;;13.30;4.13;;;16.60;99.90;;;;;;5053110;28;20155;-73
2022/06/19 01:21:25;;;;;;;9.10;4.13;;;16.50;99.90;;;;;;5053780;28;20092;-72
2022/06/19 01:24:12;;;;;;;10.40;4.10;;;16.50;99.90;;;;;;5053724;28;20060;-72
2022/06/19 01:26:43;;;;;;;9.35;4.10;;;16.30;99.90;;;;;;5054048;28;20040;-72
2022/06/19 01:29:09;;;;;;;10.80;4.05;;;16.20;99.90;;;;;;5055386;28;20021;-73
2022/06/19 01:31:41;;;;;;;10.82;4.32;;;16.20;99.90;;;;;;5071744;28;20025;-73
2022/06/19 01:34:32;;;;;;;10.73;3.95;;;16.10;99.90;;;;;;5072756;28;20033;-73
2022/06/19 01:37:00;;;;;;;9.10;3.70;;;16.10;99.90;;;;;;5071771;28;20388;-73
2022/06/19 01:39:28;;;;;;;9.45;4.50;;;16.10;99.90;;;;;;5072907;28;20028;-73
2022/06/19 01:41:54;;;;;;;11.15;3.95;;;16.10;99.90;;;;;;5073402;28;20033;-73
2022/06/19 01:44:20;;;;;;;7.65;3.88;;;16.00;99.90;;;;;;5073489;28;20388;-73
2022/06/19 01:46:46;;;;;;;8.43;3.33;;;16.00;99.90;;;;;;5074089;28;20453;-73
2022/06/19 01:49:13;;;;;;;9.65;4.45;;;15.90;99.90;;;;;;5073357;28;20025;-73
2022/06/19 01:51:39;;;;;;;12.88;4.28;;;15.80;99.90;;;;;;5073371;28;20036;-73
2022/06/19 01:54:13;;;;;;;8.40;3.85;;;15.80;99.90;;;;;;5073650;28;20488;-73
2022/06/19 01:56:38;;;;;;;5.82;3.85;;;15.80;99.90;;;;;;5073656;28;20032;-73
2022/06/19 01:59:08;;;;;;;9.75;4.20;;;15.80;99.90;;;;;;5073319;28;20494;-73
2022/06/19 02:01:36;;;;;;;10.85;4.35;;;15.70;99.90;;;;;;5073550;28;20028;-73
2022/06/19 02:04:04;;;;;;;11.48;4.18;;;15.70;99.90;;;;;;5073027;28;20484;-73
2022/06/19 02:06:36;;;;;;;7.45;4.40;;;15.70;99.90;;;;;;5073870;28;20044;-73
2022/06/19 02:09:04;;;;;;;10.15;3.65;;;15.60;99.90;;;;;;5073872;28;20039;-73
2022/06/19 02:11:33;;;;;;;9.48;4.20;;;15.60;99.90;;;;;;5073155;28;20020;-73
2022/06/19 02:14:00;;;;;;;12.07;4.00;;;15.40;99.90;;;;;;5073468;28;20024;-73
2022/06/19 02:16:26;;;;;;;10.25;4.63;;;15.40;99.90;;;;;;5073365;28;20096;-73
2022/06/19 02:18:53;;;;;;;10.52;4.22;;;15.40;99.90;;;;;;5072953;28;20055;-73
2022/06/19 02:21:33;;;;;;;10.50;4.30;;;15.40;99.90;;;;;;5073061;28;20036;-73
2022/06/19 02:23:58;;;;;;;9.32;4.50;;;15.40;99.90;;;;;;5073345;28;20064;-73
2022/06/19 02:26:24;;;;;;;11.30;4.28;;;15.40;99.90;;;;;;5072920;28;20067;-72
2022/06/19 02:28:50;;;;;;;12.95;4.95;;;15.40;99.90;;;;;;5073592;28;20036;-73
2022/06/19 02:31:18;;;;;;;12.57;4.88;;;15.30;99.90;;;;;;5075149;28;20027;-73
2022/06/19 02:33:55;;;;;;;10.95;4.72;;;15.20;99.90;;;;;;5075540;28;20103;-73
2022/06/19 02:36:37;;;;;;;11.65;4.82;;;15.10;99.90;;;;;;5075952;28;20503;-73
2022/06/19 02:39:21;;;;;;;12.00;4.40;;;15.10;99.90;;;;;;5076965;28;20416;-73
2022/06/19 02:42:19;;;;;;;8.95;4.25;;;15.10;99.90;;;;;;5075496;28;20492;-73
2022/06/19 02:44:47;;;;;;;11.05;3.92;;;15.00;99.90;;;;;;5059163;28;20041;-73
2022/06/19 02:47:12;;;;;;;11.25;4.65;;;15.00;99.90;;;;;;5076482;28;20035;-72
2022/06/19 02:49:39;;;;;;;12.82;4.80;;;15.00;99.90;;;;;;5076713;28;20025;-73
2022/06/19 02:52:07;;;;;;;9.73;4.38;;;14.90;99.90;;;;;;5076601;28;20111;-73
2022/06/19 02:54:33;;;;;;;12.25;4.65;;;14.90;99.90;;;;;;5076881;28;20529;-72
2022/06/19 02:56:59;;;;;;;13.95;5.40;;;14.80;99.90;;;;;;5076578;28;20426;-73
2022/06/19 02:59:25;;;;;;;17.63;5.70;;;14.80;99.90;;;;;;5076460;28;20025;-73
2022/06/19 03:01:50;;;;;;;11.45;6.00;;;14.70;99.90;;;;;;5076382;28;20512;-73
2022/06/19 03:04:30;;;;;;;11.90;5.65;;;14.80;99.90;;;;;;5076118;28;20078;-73
2022/06/19 03:06:56;;;;;;;15.85;5.93;;;14.80;99.90;;;;;;5076927;28;20052;-73
2022/06/19 03:09:22;;;;;;;10.70;5.45;;;14.80;99.90;;;;;;5076341;28;20035;-74
2022/06/19 03:11:48;;;;;;;11.52;4.85;;;14.70;99.90;;;;;;5076784;28;20016;-73
2022/06/19 03:14:14;;;;;;;14.60;4.97;;;14.70;99.90;;;;;;5076297;28;20103;-73
2022/06/19 03:16:39;;;;;;;9.25;4.50;;;14.60;99.90;;;;;;5076202;28;20055;-73
2022/06/19 03:19:05;;;;;;;15.85;4.90;;;14.70;99.90;;;;;;5075885;28;20036;-73
2022/06/19 03:21:31;;;;;;;9.88;4.65;;;14.70;99.90;;;;;;5076317;28;20032;-73
2022/06/19 03:23:57;;;;;;;10.98;4.45;;;14.70;99.90;;;;;;5076047;28;20032;-74
2022/06/19 03:26:22;;;;;;;12.88;4.75;;;14.70;99.90;;;;;;5074892;28;20054;-73
2022/06/19 03:28:48;;;;;;;13.48;4.95;;;14.70;99.90;;;;;;5076516;28;20017;-74
2022/06/19 03:31:22;;;;;;;12.45;4.68;;;14.70;99.90;;;;;;5075808;28;20025;-74
2022/06/19 03:33:49;;;;;;;13.73;4.75;;;14.60;99.90;;;;;;5075819;28;20033;-74
2022/06/19 03:36:15;;;;;;;10.63;4.53;;;14.40;99.90;;;;;;5076191;28;20495;-74
2022/06/19 03:38:41;;;;;;;10.05;4.63;;;14.40;99.90;;;;;;5075858;28;20472;-75
2022/06/19 03:41:07;;;;;;;8.15;4.10;;;14.40;99.90;;;;;;5075103;28;20031;-75
2022/06/19 03:43:33;;;;;;;10.75;4.25;;;14.40;99.90;;;;;;5075678;28;20415;-75
2022/06/19 03:46:12;;;;;;;10.00;4.03;;;14.40;99.90;;;;;;5075668;28;20021;-75
2022/06/19 03:48:39;;;;;;;8.85;4.43;;;14.40;99.90;;;;;;5075540;28;20050;-74
2022/06/19 03:51:05;;;;;;;13.93;4.97;;;14.40;99.90;;;;;;5075520;28;20024;-73
2022/06/19 03:53:31;;;;;;;12.00;4.78;;;14.40;99.90;;;;;;5075525;28;20031;-74
2022/06/19 03:55:57;;;;;;;10.45;4.70;;;14.40;99.90;;;;;;5075803;28;20025;-74
2022/06/19 03:58:23;;;;;;;9.68;4.30;;;14.40;99.90;;;;;;5075479;28;20468;-74
2022/06/19 04:00:48;;;;;;;10.82;4.13;;;14.40;99.90;;;;;;5075342;28;20024;-74
2022/06/19 04:03:14;;;;;;;11.05;5.53;;;14.40;99.90;;;;;;5075050;28;20383;-74
2022/06/19 04:05:39;;;;;;;9.13;4.32;;;14.40;99.90;;;;;;5075566;28;20028;-72
2022/06/19 04:08:05;;;;;;;9.00;4.57;;;14.30;99.90;;;;;;5075225;28;20024;-74
2022/06/19 04:10:31;;;;;;;10.45;4.63;;;14.20;99.90;;;;;;5075191;28;20472;-74
2022/06/19 04:12:57;;;;;;;9.43;4.45;;;14.10;99.90;;;;;;5075205;28;20388;-74
2022/06/19 04:15:22;;;;;;;11.48;4.68;;;14.10;99.90;;;;;;5075387;28;20028;-74
2022/06/19 04:17:48;;;;;;;10.85;4.43;;;14.20;99.90;;;;;;5074837;28;20532;-74
2022/06/19 04:20:14;;;;;;;13.38;4.63;;;14.20;99.90;;;;;;5074961;28;20031;-74
2022/06/19 04:22:40;;;;;;;8.63;5.00;;;14.20;99.90;;;;;;5075527;28;20381;-75
2022/06/19 04:25:13;;;;;;;11.20;4.28;;;14.20;99.90;;;;;;5074770;28;20028;-74
2022/06/19 04:27:40;;;;;;;10.65;4.38;;;14.30;99.90;;;;;;5075164;28;20023;-74
2022/06/19 04:30:06;;;;;;;12.40;5.50;;;14.30;99.90;;;;;;5074642;28;20021;-73
2022/06/19 04:32:32;;;;;;;12.88;5.63;;;14.30;99.90;;;;;;5074991;28;20372;-74
2022/06/19 04:34:57;;;;;;;12.25;5.55;;;14.30;99.90;;;;;;5074462;28;20028;-75
2022/06/19 04:37:23;;;;;;;11.80;5.30;;;14.20;99.90;;;;;;5074910;28;20036;-75
2022/06/19 04:39:48;;;;;;;12.90;6.07;;;14.20;99.90;;;;;;5074512;28;20027;-74
2022/06/19 04:42:14;;;;;;;16.50;5.57;;;14.20;99.90;;;;;;5074593;28;20016;-75
2022/06/19 04:44:40;;;;;;;10.27;4.68;;;14.20;99.90;;;;;;5074381;28;20031;-75
2022/06/19 04:47:06;;;;;;;12.07;5.13;;;14.30;99.90;;;;;;5074517;28;20071;-74
2022/06/19 04:49:31;;;;;;;12.57;5.55;;;14.40;99.90;;;;;;5074251;28;20017;-74
2022/06/19 04:51:57;;;;;;;11.68;4.93;;;14.40;99.90;;;;;;5074567;28;20099;-75
2022/06/19 04:54:23;;;;;;;11.77;4.75;;;14.50;99.90;;;;;;5073492;28;20029;-75
2022/06/19 04:56:48;;;;;;;14.02;5.00;;;14.60;99.90;;;;;;5074558;28;20028;-75
2022/06/19 04:59:14;;;;;;;16.50;5.63;;;14.60;99.90;;;;;;5074171;28;20111;-74
2022/06/19 05:01:40;;;;;;;8.75;4.63;;;14.70;99.90;;;;;;5074427;28;20024;-74
2022/06/19 05:04:09;;;;;;;11.80;4.80;;;14.70;99.90;;;;;;5073834;28;20025;-75
2022/06/19 05:06:35;;;;;;;13.52;5.82;;;14.80;99.90;;;;;;5074098;28;20024;-74
2022/06/19 05:09:01;;;;;;;11.80;5.55;;;14.90;99.90;;;;;;5074915;28;20025;-75
2022/06/19 05:11:29;;;;;;;12.95;5.15;;;14.90;99.90;;;;;;5074037;28;20032;-75
2022/06/19 05:13:55;;;;;;;14.00;5.28;;;15.00;99.90;;;;;;5073893;28;20039;-74
2022/06/19 05:16:22;;;;;;;11.13;5.05;;;15.10;99.90;;;;;;5074115;28;20024;-75
2022/06/19 05:18:49;;;;;;;9.02;4.97;;;15.10;99.90;;;;;;5072343;28;20469;-74
2022/06/19 05:21:15;;;;;;;14.43;6.05;;;15.20;99.90;;;;;;5073718;28;20032;-73
2022/06/19 05:23:44;;;;;;;11.93;5.10;;;15.30;99.90;;;;;;5073793;28;20028;-74
2022/06/19 05:26:20;;;;;;;9.63;4.47;;;15.30;99.90;;;;;;5072480;28;20033;-74
2022/06/19 05:28:48;;;;;;;11.15;5.13;;;15.40;99.90;;;;;;5072455;28;20016;-73
2022/06/19 05:31:13;;;;;;;15.13;5.50;;;15.40;99.90;;;;;;5072513;28;20021;-74
2022/06/19 05:33:39;;;;;;;14.80;5.18;;;15.50;99.90;;;;;;5073294;28;20107;-74
2022/06/19 05:36:06;;;;;;;11.73;4.63;;;15.60;99.90;;;;;;5071680;28;20024;-74
2022/06/19 05:38:32;;;;;;;13.98;5.40;;;15.70;99.90;;;;;;5073607;28;20029;-74
2022/06/19 05:40:59;;;;;;;16.95;4.78;;;15.90;99.90;;;;;;5070621;28;20028;-74
2022/06/19 05:43:26;;;;;;;10.98;4.95;;;16.00;99.90;;;;;;5073061;28;20029;-75
2022/06/19 05:46:01;;;;;;;15.05;5.15;;;16.10;99.90;;;;;;5072147;28;20021;-74
2022/06/19 05:48:27;;;;;;;11.88;5.28;;;16.30;99.90;;;;;;5072836;28;20100;-74
2022/06/19 05:50:57;;;;;;;16.55;5.00;;;16.50;99.90;;;;;;5071910;28;20025;-74
2022/06/19 05:53:23;;;;;;;11.02;4.20;;;16.70;99.90;;;;;;5073167;28;20044;-74
2022/06/19 05:55:48;;;;;;;15.38;5.40;;;16.80;99.90;;;;;;5071998;28;20063;-74
2022/06/19 05:58:14;;;;;;;13.60;5.45;;;17.00;99.90;;;;;;5072807;28;20028;-75
2022/06/19 06:00:40;;;;;;;13.90;4.75;;;17.10;99.90;;;;;;5072237;28;20056;-74
2022/06/19 06:03:05;;;;;;;12.20;4.90;;;17.20;99.90;;;;;;5072501;28;20474;-74
2022/06/19 06:05:31;;;;;;;15.82;5.43;;;17.40;99.90;;;;;;5071856;28;20029;-74
2022/06/19 06:07:56;;;;;;;11.77;4.88;;;17.50;99.90;;;;;;5072671;28;20073;-75
2022/06/19 06:10:22;;;;;;;14.90;5.57;;;17.60;99.90;;;;;;5072221;28;20060;-74
2022/06/19 06:12:48;;;;;;;9.98;4.57;;;17.70;99.90;;;;;;5072560;28;20073;-74
2022/06/19 06:15:14;;;;;;;14.60;5.53;;;17.80;99.90;;;;;;5073164;28;20110;-75
2022/06/19 06:17:39;;;;;;;14.30;5.25;;;17.90;99.90;;;;;;5071053;28;20583;-75
2022/06/19 06:20:05;;;;;;;21.08;6.63;;;17.90;99.90;;;;;;5071605;28;20493;-74
2022/06/19 06:22:31;;;;;;;17.10;5.03;;;18.00;99.90;;;;;;5065089;28;20484;-74
2022/06/19 06:24:56;;;;;;;17.85;5.30;;;18.20;99.90;;;;;;5070894;28;20047;-74
2022/06/19 06:27:23;;;;;;;12.55;4.93;;;18.30;99.90;;;;;;5070778;28;20023;-74
2022/06/19 06:29:49;;;;;;;15.68;5.03;;;18.50;99.90;;;;;;5072457;28;20021;-74
2022/06/19 06:32:15;;;;;;;12.43;4.93;;;18.60;99.90;;;;;;5070855;28;20016;-74
2022/06/19 06:34:40;;;;;;;11.38;4.65;;;18.80;99.90;;;;;;5072323;28;20082;-74
2022/06/19 06:37:06;;;;;;;15.43;5.20;;;18.90;99.90;;;;;;5071701;28;20024;-74
2022/06/19 06:39:32;;;;;;;14.43;5.57;;;19.10;99.90;;;;;;5071131;28;20029;-74
2022/06/19 06:41:57;;;;;;;16.08;5.93;;;19.30;99.90;;;;;;5071829;28;20103;-74
2022/06/19 06:44:23;;;;;;;12.90;4.50;;;19.40;99.90;;;;;;5072266;28;20032;-74
2022/06/19 06:46:49;;;;;;;13.80;5.35;;;19.60;99.90;;;;;;5072283;28;20021;-74
2022/06/19 06:49:15;;;;;;;10.00;4.43;;;19.80;99.90;;;;;;5071263;28;20045;-74
2022/06/19 06:51:41;;;;;;;12.10;4.43;;;20.00;99.70;;;;;;5071541;28;20542;-73
2022/06/19 06:54:07;;;;;;;18.55;5.65;;;20.10;99.20;;;;;;5073401;28;20404;-74
2022/06/19 06:56:35;;;;;;;9.70;4.85;;;20.30;97.50;;;;;;5072747;28;20052;-74
2022/06/19 06:59:01;;;;;;;11.10;4.13;;;20.50;98.40;;;;;;5072666;28;20074;-74
2022/06/19 07:01:26;;;;;;;12.57;4.80;;;20.60;97.90;;;;;;5072738;28;20028;-74
2022/06/19 07:03:55;;;;;;;13.43;4.50;;;20.80;96.80;;;;;;5072444;28;20023;-74
2022/06/19 07:06:22;;;;;;;10.05;3.92;;;21.00;97.60;;;;;;5072714;28;20017;-75
2022/06/19 07:08:48;;;;;;;19.60;5.57;;;21.20;98.40;;;;;;5072957;28;20025;-74
2022/06/19 07:11:20;;;;;;;17.58;5.72;;;21.30;98.00;;;;;;5072582;28;20027;-73
2022/06/19 07:13:46;;;;;;;21.63;6.22;;;21.50;99.00;;;;;;5073037;28;20028;-73
2022/06/19 07:16:12;;;;;;;16.27;6.15;;;21.60;98.80;;;;;;5072866;28;20025;-74
2022/06/19 07:18:37;;;;;;;16.00;5.50;;;21.60;98.60;;;;;;5075984;28;20119;-74
2022/06/19 07:21:03;;;;;;;19.63;5.90;;;21.70;98.20;;;;;;5076239;28;20052;-73
2022/06/19 07:23:29;;;;;;;19.40;5.85;;;21.80;98.70;;;;;;5076102;28;20452;-73
2022/06/19 07:25:54;;;;;;;18.23;5.40;;;21.90;96.80;;;;;;5076011;28;20078;-73
2022/06/19 07:28:20;;;;;;;18.02;5.32;;;22.00;96.30;;;;;;5076032;28;20025;-73
2022/06/19 07:30:46;;;;;;;19.83;6.55;;;22.20;96.20;;;;;;5076272;28;20095;-73
2022/06/19 07:33:12;;;;;;;20.30;5.55;;;22.30;95.60;;;;;;5075724;28;20473;-73
2022/06/19 07:35:38;;;;;;;19.00;4.85;;;22.40;94.60;;;;;;5074648;28;20025;-72
2022/06/19 07:38:04;;;;;;;20.17;5.88;;;22.60;92.60;;;;;;5075867;28;20384;-73
2022/06/19 07:40:30;;;;;;;15.45;5.50;;;22.70;92.40;;;;;;5076237;28;20031;-73
2022/06/19 07:42:55;;;;;;;18.10;5.47;;;22.90;93.70;;;;;;5075886;28;20060;-73
2022/06/19 07:45:21;;;;;;;16.83;5.30;;;23.00;93.50;;;;;;5075712;28;20460;-73
2022/06/19 07:50:31;;;;;;;14.30;4.25;;;23.30;91.30;;;;;;5075464;28;20028;-73
2022/06/19 07:52:57;;;;;;;12.73;4.50;;;23.50;90.00;;;;;;5075643;28;20020;-73
2022/06/19 07:55:26;;;;;;;14.90;5.00;;;23.60;89.40;;;;;;5075560;28;20025;-73
2022/06/19 07:57:52;;;;;;;15.98;5.63;;;23.80;88.30;;;;;;5075591;28;20025;-72
2022/06/19 08:00:22;;;;;;;14.98;4.70;;;23.90;86.40;;;;;;5075329;28;20381;-72
2022/06/19 08:02:49;;;;;;;15.07;4.72;;;24.00;85.90;;;;;;5075382;28;20043;-72
2022/06/19 08:05:20;;;;;;;18.42;5.68;;;24.10;85.40;;;;;;5075138;28;20025;-72
2022/06/19 08:07:46;;;;;;;;;;;24.30;86.10;;;;;;5076043;28;20100;-72
2022/06/19 08:10:21;;;;;;;18.58;5.97;;;24.40;87.40;;;;;;5075710;28;20025;-73
2022/06/19 08:12:48;;;;;;;11.32;4.93;;;24.60;88.10;;;;;;5075522;28;20024;-72
2022/06/19 08:15:14;;;;;;;18.75;5.05;;;24.70;84.30;;;;;;5075178;28;20017;-71
2022/06/19 08:17:39;;;;;;;15.50;5.60;;;24.80;82.30;;;;;;5075088;28;20054;-72
2022/06/19 08:20:06;;;;;;;15.90;5.05;;;24.90;82.90;;;;;;5074816;28;20032;-72
2022/06/19 08:22:32;;;;;;;12.82;5.30;;;25.00;84.50;;;;;;5075048;28;20029;-72
2022/06/19 08:24:57;;;;;;;21.92;5.72;;;25.20;83.30;;;;;;5074936;28;20484;-72
2022/06/19 08:27:23;;;;;;;20.95;5.78;;;25.30;81.80;;;;;;5074850;28;20104;-71
2022/06/19 08:29:48;;;;;;;15.45;5.82;;;25.40;81.50;;;;;;5074718;28;20467;-71
2022/06/19 08:32:14;;;;;;;18.08;5.40;;;25.60;81.10;;;;;;5074823;28;20095;-71
2022/06/19 08:34:40;;;;;;;12.27;5.60;;;25.70;82.10;;;;;;5074663;28;20029;-71
2022/06/19 08:37:08;;;;;;;13.90;4.90;;;25.90;81.00;;;;;;5075089;28;20380;-71
2022/06/19 08:39:34;;;;;;;16.15;5.03;;;26.10;82.40;;;;;;5073436;28;20575;-71
2022/06/19 08:42:09;;;;;;;16.92;4.93;;;26.20;79.70;;;;;;5074542;28;20060;-72
2022/06/19 08:44:57;;;;;;;15.20;5.20;;;26.40;78.00;;;;;;5074565;28;20027;-72
2022/06/19 08:47:35;;;;;;;19.65;5.45;;;26.50;78.60;;;;;;5074820;28;20346;-71
2022/06/19 08:50:22;;;;;;;14.02;4.78;;;26.60;80.70;;;;;;5074190;28;20078;-71
2022/06/19 08:53:00;;;;;;;13.15;5.43;;;26.80;77.20;;;;;;5074455;28;20078;-71
2022/06/19 08:55:50;;;;;;;16.90;4.80;;;27.00;78.30;;;;;;5074706;28;20103;-71
2022/06/19 08:58:37;;;;;;;12.55;4.13;;;27.10;75.40;;;;;;5074603;28;20465;-72
2022/06/19 09:01:33;;;;;;;14.60;4.03;;;27.30;68.70;;;;;;5074194;28;20033;-71
2022/06/19 09:07:21;;;;;;;15.20;4.07;;;27.40;68.50;;;;;;5074427;28;20388;-71
2022/06/19 09:10:45;;;;;;;12.18;4.25;;;27.60;69.60;;;;;;5074462;28;20406;-71
2022/06/19 09:13:13;;;;;;;;;;;27.80;70.80;;;;;;5032524;28;20036;-72
2022/06/19 09:15:38;;;;;;;;;;;28.00;70.10;;;;;;5032499;28;19912;-71
2022/06/19 09:18:05;;;;;;;;;;;28.10;67.10;;;;;;5058193;28;19905;-72
2022/06/19 09:20:31;;;;;;;;;;;28.20;67.70;;;;;;5074122;28;20367;-72
2022/06/19 09:22:57;;;;;;;;;;;28.30;66.40;;;;;;5074265;28;19909;-72
2022/06/19 09:25:29;;;;;;;;;;;28.50;63.80;;;;;;5074041;28;19912;-72
2022/06/19 09:27:57;;;;;;;15.25;3.83;;;28.50;62.20;;;;;;5074494;28;19954;-70
2022/06/19 09:30:50;;;;;;;16.58;3.80;;;28.60;57.10;;;;;;5073632;28;20026;-70
2022/06/19 09:33:29;;;;;;;17.17;4.32;;;28.70;58.20;;;;;;5073788;28;20393;-70
2022/06/19 09:36:44;;;;;;;14.35;4.35;;;28.80;57.90;;;;;;5074065;28;20511;-70
2022/06/19 09:39:16;;;;;;;16.88;4.03;;;28.90;56.60;;;;;;5064834;28;20043;-70
2022/06/19 09:41:51;;;;;;;14.90;3.88;;;29.10;56.10;;;;;;5072304;28;20366;-70
2022/06/19 09:44:34;;;;;;;21.05;4.88;;;29.20;57.70;;;;;;5073851;28;20104;-69
2022/06/19 09:47:10;;;;;;;14.15;4.20;;;29.30;55.80;;;;;;5073596;28;20021;-70
2022/06/19 09:50:05;;;;;;;11.30;3.92;;;29.40;55.60;;;;;;5073748;28;20025;-70
2022/06/19 09:52:48;;;;;;;12.52;3.70;;;29.50;56.00;;;;;;5067715;28;20029;-70
2022/06/19 09:55:25;;;;;;;12.80;3.42;;;29.60;54.30;;;;;;5074058;28;20031;-70
2022/06/19 09:58:07;;;;;;;16.33;3.88;;;29.80;53.40;;;;;;5073510;28;20028;-70
2022/06/19 10:00:35;;;;;;;14.30;3.90;;;30.00;54.90;;;;;;5073430;28;20031;-70
2022/06/19 10:03:11;;;;;;;13.20;4.22;;;30.00;55.30;;;;;;5073609;28;20389;-70
2022/06/19 10:05:43;;;;;;;15.32;4.28;;;30.10;55.10;;;;;;5073094;28;20027;-69
2022/06/19 10:08:08;;;;;;;13.80;4.15;;;30.20;54.40;;;;;;5073330;28;20027;-70
2022/06/19 10:10:53;;;;;;;13.90;4.15;;;30.30;54.90;;;;;;5071931;28;20017;-70
2022/06/19 10:13:30;;;;;;;16.45;4.18;;;30.30;54.60;;;;;;5073324;28;20021;-70
2022/06/19 10:16:00;;;;;;;12.88;4.68;;;30.40;56.60;;;;;;5073608;28;20070;-69
2022/06/19 10:18:31;;;;;;;17.95;3.63;;;30.50;56.90;;;;;;5073476;28;20016;-69
2022/06/19 10:24:13;;;;;;;13.77;3.30;;;30.80;57.60;;;;;;5073414;28;20028;-70
2022/06/19 10:27:20;;;;;;;14.38;3.95;;;31.00;55.50;;;;;;5071861;28;20450;-70
2022/06/19 10:29:48;;;;;;;8.57;3.00;;;31.20;55.00;;;;;;5031193;28;20026;-70
2022/06/19 10:32:34;;;;;;;13.68;3.05;;;31.30;52.10;;;;;;5064968;28;20033;-69
2022/06/19 10:35:28;;;;;;;9.98;2.85;;;31.30;51.30;;;;;;5073044;28;20083;-70
2022/06/19 10:38:26;;;;;;;9.27;2.33;;;31.40;50.30;;;;;;5071748;28;20031;-70
2022/06/19 10:41:07;;;;;;;15.80;3.20;;;31.60;50.50;;;;;;5037042;28;20506;-70
2022/06/19 10:44:00;;;;;;;11.27;2.83;;;31.70;50.10;;;;;;5072875;28;20028;-70
2022/06/19 10:46:26;;;;;;;10.63;3.17;;;31.80;49.70;;;;;;5073255;28;20017;-69
2022/06/19 10:49:26;;;;;;;12.25;3.10;;;32.00;50.00;;;;;;5072713;28;20013;-70
2022/06/19 10:52:09;;;;;;;14.73;3.30;;;32.10;48.90;;;;;;5074232;28;20146;-70
2022/06/19 10:54:44;;;;;;;13.82;3.10;;;32.20;50.20;;;;;;5076944;28;20035;-69
2022/06/19 10:57:31;;;;;;;16.52;3.53;;;32.40;51.40;;;;;;5076944;28;20028;-69
2022/06/19 10:59:56;;;;;;;13.48;3.33;;;32.50;50.90;;;;;;5075196;28;20032;-69
2022/06/19 11:05:52;;;;;;;12.65;3.63;;;32.80;49.80;;;;;;5076363;28;20554;-69
2022/06/19 11:08:22;;;;;;;16.50;3.35;;;32.70;48.80;;;;;;5076776;28;20484;-69
2022/06/19 11:10:54;;;;;;;11.70;3.42;;;32.60;48.90;;;;;;5076305;28;20043;-69
2022/06/19 11:13:20;;;;;;;11.07;3.25;;;32.50;49.20;;;;;;5076341;28;20074;-68
2022/06/19 11:16:03;;;;;;;14.48;3.70;;;32.50;51.50;;;;;;5076634;28;20028;-69
2022/06/19 11:18:29;;;;;;;15.63;4.10;;;32.60;49.20;;;;;;5076811;28;20107;-69
2022/06/19 11:21:04;;;;;;;13.85;4.18;;;32.60;48.80;;;;;;5075973;28;20108;-69
2022/06/19 11:23:36;;;;;;;17.27;4.10;;;32.70;49.60;;;;;;5076129;28;20028;-69
2022/06/19 11:26:05;;;;;;;10.00;3.45;;;32.70;49.90;;;;;;5076005;28;20075;-69
2022/06/19 11:29:01;;;;;;;15.40;4.15;;;32.70;49.10;;;;;;5076083;28;20029;-69
2022/06/19 11:31:33;;;;;;;11.20;3.35;;;32.90;49.00;;;;;;5074717;28;20070;-69
2022/06/19 11:34:43;;;;;;;13.40;3.42;;;33.00;47.60;;;;;;5075975;28;20029;-69
2022/06/19 11:37:29;;;;;;;16.02;4.10;;;33.10;47.80;;;;;;5075758;28;20388;-69
2022/06/19 11:39:57;;;;;;;15.38;3.53;;;33.20;48.30;;;;;;5076056;28;20024;-69
2022/06/19 11:42:28;;;;;;;10.95;3.33;;;33.30;48.70;;;;;;5075824;28;20036;-69
2022/06/19 11:45:00;;;;;;;12.43;3.72;;;33.30;49.30;;;;;;5074443;28;20489;-69
2022/06/19 11:47:38;;;;;;;19.73;4.10;;;33.40;47.70;;;;;;5074697;28;20020;-69
2022/06/19 11:50:13;;;;;;;16.90;3.75;;;33.30;47.20;;;;;;5075607;28;20048;-69
2022/06/19 11:52:43;;;;;;;12.60;3.63;;;33.30;47.60;;;;;;5075959;28;20384;-69
2022/06/19 11:55:16;;;;;;;13.57;3.45;;;33.30;46.70;;;;;;5075873;28;20032;-69
2022/06/19 11:57:42;;;;;;;17.58;4.07;;;33.40;47.90;;;;;;5076108;28;20081;-69
2022/06/19 12:00:25;;;;;;;16.13;4.00;;;33.50;48.60;;;;;;5075446;28;20035;-69
2022/06/19 12:02:55;;;;;;;19.58;4.40;;;33.60;46.10;;;;;;5075323;28;20036;-69
2022/06/19 12:05:33;;;;;;;13.43;4.20;;;33.70;46.50;;;;;;5075215;28;20427;-69
2022/06/19 12:08:32;;;;;;;15.35;4.22;;;33.90;46.90;;;;;;5075444;28;20029;-69
2022/06/19 12:11:05;;;;;;;16.58;4.05;;;33.90;47.10;;;;;;5067575;28;20028;-69
2022/06/19 12:13:36;;;;;;;16.52;4.13;;;33.90;46.50;;;;;;5075215;28;20020;-69
2022/06/19 12:16:23;;;;;;;12.10;3.40;;;34.00;45.40;;;;;;5073981;28;20035;-69
2022/06/19 12:18:50;;;;;;;14.98;4.30;;;34.10;43.70;;;;;;5075049;28;20019;-69
2022/06/19 12:21:22;;;;;;;17.02;3.67;;;34.20;45.60;;;;;;5074813;28;20391;-69
2022/06/19 12:24:01;;;;;;;16.42;3.75;;;34.30;45.70;;;;;;5074955;28;20031;-69
2022/06/19 12:26:40;;;;;;;11.95;4.28;;;34.30;44.30;;;;;;5074931;28;20028;-69
2022/06/19 12:29:18;;;;;;;12.95;3.72;;;34.30;45.10;;;;;;5075088;28;20024;-69
2022/06/19 12:31:46;;;;;;;13.00;4.28;;;34.40;44.90;;;;;;5074868;28;20078;-68
2022/06/19 12:34:26;;;;;;;11.18;3.75;;;34.50;44.90;;;;;;5074619;28;20031;-69
2022/06/19 12:36:53;;;;;;;12.77;4.03;;;34.50;44.30;;;;;;5074836;28;20023;-69
2022/06/19 12:39:23;;;;;;;20.95;4.80;;;34.50;44.50;;;;;;5074972;28;20024;-70
2022/06/19 12:42:12;;;;;;;16.47;4.63;;;34.60;45.20;;;;;;5074886;28;20367;-69
2022/06/19 12:44:52;;;;;;;14.13;3.67;;;34.70;44.90;;;;;;5074868;28;20033;-68
2022/06/19 12:47:23;;;;;;;17.42;4.18;;;34.80;46.80;;;;;;5074883;28;20029;-70
2022/06/19 12:50:06;;;;;;;15.00;3.75;;;34.80;46.60;;;;;;5074414;28;20476;-69
2022/06/19 12:52:47;;;;;;;15.48;3.92;;;35.00;45.20;;;;;;5074454;28;20476;-69
2022/06/19 12:55:25;;;;;;;14.85;4.00;;;35.10;44.30;;;;;;5074716;28;20024;-69
2022/06/19 12:58:29;;;;;;;14.52;4.15;;;35.20;46.20;;;;;;5074369;28;20102;-69
2022/06/19 13:01:34;;;;;;;14.18;3.60;;;35.30;43.50;;;;;;5064836;28;20040;-69
2022/06/19 13:04:21;;;;;;;11.63;3.53;;;35.20;45.40;;;;;;5074217;28;20060;-69
2022/06/19 13:07:15;;;;;;;12.20;3.40;;;35.30;44.10;;;;;;5074753;28;20021;-70
2022/06/19 13:09:55;;;;;;;10.05;3.35;;;35.30;44.20;;;;;;5074479;28;20491;-71
2022/06/19 13:12:48;;;;;;;17.67;3.65;;;35.30;43.80;;;;;;5074167;28;20089;-71